sensor_id;sensor_type;location;lat;lon;timestamp;P1;durP1;ratioP1;P2;durP2;ratioP2
9176;SDS011;4623;54.310;10.112;2022-08-19T00:00:06;8.65;;;6.32;;
9176;SDS011;4623;54.310;10.112;2022-08-19T00:02:35;10.70;;;5.28;;
9176;SDS011;4623;54.310;10.112;2022-08-19T00:05:02;17.98;;;6.15;;
9176;SDS011;4623;54.310;10.112;2022-08-19T00:07:28;10.73;;;5.40;;
9176;SDS011;4623;54.310;10.112;2022-08-19T00:09:54;10.30;;;5.88;;
9176;SDS011;4623;54.310;10.112;2022-08-19T00:12:20;9.10;;;5.82;;
9176;SDS011;4623;54.310;10.112;2022-08-19T00:14:45;9.10;;;5.65;;
9176;SDS011;4623;54.310;10.112;2022-08-19T00:17:11;7.57;;;5.20;;
9176;SDS011;4623;54.310;10.112;2022-08-19T00:19:38;6.75;;;4.95;;
9176;SDS011;4623;54.310;10.112;2022-08-19T00:22:04;6.75;;;5.53;;
9176;SDS011;4623;54.310;10.112;2022-08-19T00:24:30;7.75;;;6.15;;
9176;SDS011;4623;54.310;10.112;2022-08-19T00:26:56;9.65;;;6.70;;
9176;SDS011;4623;54.310;10.112;2022-08-19T00:29:23;11.35;;;7.30;;
9176;SDS011;4623;54.310;10.112;2022-08-19T00:31:50;11.07;;;5.85;;
9176;SDS011;4623;54.310;10.112;2022-08-19T00:34:19;11.18;;;6.95;;
9176;SDS011;4623;54.310;10.112;2022-08-19T00:36:46;10.82;;;7.13;;
9176;SDS011;4623;54.310;10.112;2022-08-19T00:39:12;6.78;;;5.10;;
9176;SDS011;4623;54.310;10.112;2022-08-19T00:41:39;9.18;;;6.55;;
9176;SDS011;4623;54.310;10.112;2022-08-19T00:46:33;7.28;;;5.28;;
9176;SDS011;4623;54.310;10.112;2022-08-19T00:49:02;8.40;;;5.97;;
9176;SDS011;4623;54.310;10.112;2022-08-19T00:51:33;9.70;;;5.63;;
9176;SDS011;4623;54.310;10.112;2022-08-19T00:53:59;10.07;;;5.85;;
9176;SDS011;4623;54.310;10.112;2022-08-19T00:56:26;10.05;;;6.82;;
9176;SDS011;4623;54.310;10.112;2022-08-19T00:58:54;10.38;;;5.72;;
9176;SDS011;4623;54.310;10.112;2022-08-19T01:01:21;6.60;;;5.43;;
9176;SDS011;4623;54.310;10.112;2022-08-19T01:03:47;11.10;;;6.20;;
9176;SDS011;4623;54.310;10.112;2022-08-19T01:06:12;8.93;;;6.03;;
9176;SDS011;4623;54.310;10.112;2022-08-19T01:08:39;7.22;;;5.18;;
9176;SDS011;4623;54.310;10.112;2022-08-19T01:11:05;6.15;;;5.10;;
9176;SDS011;4623;54.310;10.112;2022-08-19T01:13:33;7.47;;;6.20;;
9176;SDS011;4623;54.310;10.112;2022-08-19T01:16:02;7.35;;;5.05;;
9176;SDS011;4623;54.310;10.112;2022-08-19T01:18:30;10.85;;;6.55;;
9176;SDS011;4623;54.310;10.112;2022-08-19T01:21:02;10.93;;;7.57;;
9176;SDS011;4623;54.310;10.112;2022-08-19T01:23:34;11.30;;;6.32;;
9176;SDS011;4623;54.310;10.112;2022-08-19T01:26:10;8.73;;;6.35;;
9176;SDS011;4623;54.310;10.112;2022-08-19T01:28:38;9.70;;;5.95;;
9176;SDS011;4623;54.310;10.112;2022-08-19T01:31:04;8.23;;;6.28;;
9176;SDS011;4623;54.310;10.112;2022-08-19T01:33:31;9.05;;;5.93;;
9176;SDS011;4623;54.310;10.112;2022-08-19T01:36:31;8.93;;;6.15;;
9176;SDS011;4623;54.310;10.112;2022-08-19T01:38:54;9.63;;;6.38;;
9176;SDS011;4623;54.310;10.112;2022-08-19T01:41:20;9.80;;;6.13;;
9176;SDS011;4623;54.310;10.112;2022-08-19T01:43:48;7.40;;;6.25;;
9176;SDS011;4623;54.310;10.112;2022-08-19T01:46:15;15.40;;;8.45;;
9176;SDS011;4623;54.310;10.112;2022-08-19T01:48:41;17.77;;;8.77;;
9176;SDS011;4623;54.310;10.112;2022-08-19T01:51:09;13.00;;;6.93;;
9176;SDS011;4623;54.310;10.112;2022-08-19T01:53:35;7.07;;;6.05;;
9176;SDS011;4623;54.310;10.112;2022-08-19T01:56:02;17.27;;;8.10;;
9176;SDS011;4623;54.310;10.112;2022-08-19T01:58:30;9.88;;;6.47;;
9176;SDS011;4623;54.310;10.112;2022-08-19T02:01:01;10.32;;;6.88;;
9176;SDS011;4623;54.310;10.112;2022-08-19T02:03:27;14.38;;;7.63;;
9176;SDS011;4623;54.310;10.112;2022-08-19T02:05:59;14.02;;;7.80;;
9176;SDS011;4623;54.310;10.112;2022-08-19T02:08:27;10.30;;;6.55;;
9176;SDS011;4623;54.310;10.112;2022-08-19T02:10:54;9.85;;;6.28;;
9176;SDS011;4623;54.310;10.112;2022-08-19T02:13:21;12.13;;;6.45;;
9176;SDS011;4623;54.310;10.112;2022-08-19T02:15:47;13.13;;;6.32;;
9176;SDS011;4623;54.310;10.112;2022-08-19T02:18:13;13.75;;;6.95;;
9176;SDS011;4623;54.310;10.112;2022-08-19T02:20:39;7.97;;;5.78;;
9176;SDS011;4623;54.310;10.112;2022-08-19T02:23:06;9.23;;;6.45;;
9176;SDS011;4623;54.310;10.112;2022-08-19T02:25:32;12.95;;;7.07;;
9176;SDS011;4623;54.310;10.112;2022-08-19T02:27:58;11.38;;;7.22;;
9176;SDS011;4623;54.310;10.112;2022-08-19T02:30:23;9.70;;;6.22;;
9176;SDS011;4623;54.310;10.112;2022-08-19T02:32:50;11.40;;;6.30;;
9176;SDS011;4623;54.310;10.112;2022-08-19T02:35:16;8.95;;;6.40;;
9176;SDS011;4623;54.310;10.112;2022-08-19T02:37:42;9.27;;;5.82;;
9176;SDS011;4623;54.310;10.112;2022-08-19T02:40:27;10.93;;;6.88;;
9176;SDS011;4623;54.310;10.112;2022-08-19T02:42:53;11.18;;;6.85;;
9176;SDS011;4623;54.310;10.112;2022-08-19T02:45:19;9.65;;;7.43;;
9176;SDS011;4623;54.310;10.112;2022-08-19T02:47:45;11.02;;;7.30;;
9176;SDS011;4623;54.310;10.112;2022-08-19T02:50:11;12.35;;;7.35;;
9176;SDS011;4623;54.310;10.112;2022-08-19T02:52:37;9.63;;;6.63;;
9176;SDS011;4623;54.310;10.112;2022-08-19T02:55:04;12.70;;;7.30;;
9176;SDS011;4623;54.310;10.112;2022-08-19T02:57:30;13.32;;;8.70;;
9176;SDS011;4623;54.310;10.112;2022-08-19T02:59:56;11.05;;;6.95;;
9176;SDS011;4623;54.310;10.112;2022-08-19T03:02:22;12.20;;;6.95;;
9176;SDS011;4623;54.310;10.112;2022-08-19T03:04:48;9.73;;;7.38;;
9176;SDS011;4623;54.310;10.112;2022-08-19T03:07:14;11.93;;;6.80;;
9176;SDS011;4623;54.310;10.112;2022-08-19T03:09:40;10.15;;;7.13;;
9176;SDS011;4623;54.310;10.112;2022-08-19T03:12:07;15.40;;;8.00;;
9176;SDS011;4623;54.310;10.112;2022-08-19T03:14:33;14.65;;;8.88;;
9176;SDS011;4623;54.310;10.112;2022-08-19T03:16:59;11.57;;;7.07;;
9176;SDS011;4623;54.310;10.112;2022-08-19T03:19:25;11.00;;;7.65;;
9176;SDS011;4623;54.310;10.112;2022-08-19T03:21:51;12.85;;;8.57;;
9176;SDS011;4623;54.310;10.112;2022-08-19T03:24:17;12.43;;;7.57;;
9176;SDS011;4623;54.310;10.112;2022-08-19T03:26:45;11.73;;;7.32;;
9176;SDS011;4623;54.310;10.112;2022-08-19T03:29:17;11.82;;;7.57;;
9176;SDS011;4623;54.310;10.112;2022-08-19T03:31:44;12.30;;;6.72;;
9176;SDS011;4623;54.310;10.112;2022-08-19T03:34:11;9.63;;;6.95;;
9176;SDS011;4623;54.310;10.112;2022-08-19T03:36:39;8.77;;;6.20;;
9176;SDS011;4623;54.310;10.112;2022-08-19T03:39:05;11.35;;;6.85;;
9176;SDS011;4623;54.310;10.112;2022-08-19T03:41:36;10.23;;;6.20;;
9176;SDS011;4623;54.310;10.112;2022-08-19T03:44:03;9.00;;;7.28;;
9176;SDS011;4623;54.310;10.112;2022-08-19T03:46:33;14.85;;;8.25;;
9176;SDS011;4623;54.310;10.112;2022-08-19T03:49:00;12.13;;;7.43;;
9176;SDS011;4623;54.310;10.112;2022-08-19T03:51:30;14.52;;;7.20;;
9176;SDS011;4623;54.310;10.112;2022-08-19T03:53:59;10.20;;;7.43;;
9176;SDS011;4623;54.310;10.112;2022-08-19T03:56:26;11.48;;;6.97;;
9176;SDS011;4623;54.310;10.112;2022-08-19T03:58:55;17.00;;;8.57;;
9176;SDS011;4623;54.310;10.112;2022-08-19T04:01:22;11.13;;;7.05;;
9176;SDS011;4623;54.310;10.112;2022-08-19T04:03:51;12.38;;;7.22;;
9176;SDS011;4623;54.310;10.112;2022-08-19T04:06:27;12.85;;;8.10;;
9176;SDS011;4623;54.310;10.112;2022-08-19T04:08:58;11.75;;;8.30;;
9176;SDS011;4623;54.310;10.112;2022-08-19T04:11:27;13.52;;;6.95;;
9176;SDS011;4623;54.310;10.112;2022-08-19T04:13:55;13.48;;;8.02;;
9176;SDS011;4623;54.310;10.112;2022-08-19T04:16:22;12.25;;;6.90;;
9176;SDS011;4623;54.310;10.112;2022-08-19T04:18:50;10.60;;;6.68;;
9176;SDS011;4623;54.310;10.112;2022-08-19T04:21:19;8.20;;;6.13;;
9176;SDS011;4623;54.310;10.112;2022-08-19T04:23:47;15.68;;;8.02;;
9176;SDS011;4623;54.310;10.112;2022-08-19T04:26:14;14.15;;;7.97;;
9176;SDS011;4623;54.310;10.112;2022-08-19T04:28:41;11.32;;;6.90;;
9176;SDS011;4623;54.310;10.112;2022-08-19T04:31:12;14.35;;;8.45;;
9176;SDS011;4623;54.310;10.112;2022-08-19T04:33:41;11.32;;;7.60;;
9176;SDS011;4623;54.310;10.112;2022-08-19T04:36:07;10.70;;;7.38;;
9176;SDS011;4623;54.310;10.112;2022-08-19T04:38:41;8.30;;;6.60;;
9176;SDS011;4623;54.310;10.112;2022-08-19T04:41:06;11.60;;;7.25;;
9176;SDS011;4623;54.310;10.112;2022-08-19T04:43:50;11.90;;;8.15;;
9176;SDS011;4623;54.310;10.112;2022-08-19T04:46:16;9.50;;;6.78;;
9176;SDS011;4623;54.310;10.112;2022-08-19T04:48:42;14.80;;;8.07;;
9176;SDS011;4623;54.310;10.112;2022-08-19T04:51:09;13.20;;;7.93;;
9176;SDS011;4623;54.310;10.112;2022-08-19T04:53:38;13.80;;;7.80;;
9176;SDS011;4623;54.310;10.112;2022-08-19T04:56:06;13.68;;;7.38;;
9176;SDS011;4623;54.310;10.112;2022-08-19T04:58:35;8.65;;;7.40;;
9176;SDS011;4623;54.310;10.112;2022-08-19T05:01:02;10.85;;;7.38;;
9176;SDS011;4623;54.310;10.112;2022-08-19T05:03:29;10.85;;;8.27;;
9176;SDS011;4623;54.310;10.112;2022-08-19T05:05:58;16.30;;;8.25;;
9176;SDS011;4623;54.310;10.112;2022-08-19T05:08:32;10.23;;;6.45;;
9176;SDS011;4623;54.310;10.112;2022-08-19T05:10:59;10.05;;;6.68;;
9176;SDS011;4623;54.310;10.112;2022-08-19T05:13:24;17.10;;;8.05;;
9176;SDS011;4623;54.310;10.112;2022-08-19T05:15:58;10.77;;;7.60;;
9176;SDS011;4623;54.310;10.112;2022-08-19T05:18:25;12.50;;;7.32;;
9176;SDS011;4623;54.310;10.112;2022-08-19T05:21:12;13.70;;;7.88;;
9176;SDS011;4623;54.310;10.112;2022-08-19T05:23:59;14.48;;;8.73;;
9176;SDS011;4623;54.310;10.112;2022-08-19T05:26:25;8.50;;;6.28;;
9176;SDS011;4623;54.310;10.112;2022-08-19T05:28:54;11.27;;;6.95;;
9176;SDS011;4623;54.310;10.112;2022-08-19T05:31:20;14.18;;;7.93;;
9176;SDS011;4623;54.310;10.112;2022-08-19T05:33:46;16.77;;;10.05;;
9176;SDS011;4623;54.310;10.112;2022-08-19T05:36:12;17.05;;;8.32;;
9176;SDS011;4623;54.310;10.112;2022-08-19T05:38:38;14.13;;;7.32;;
9176;SDS011;4623;54.310;10.112;2022-08-19T05:41:11;9.43;;;7.10;;
9176;SDS011;4623;54.310;10.112;2022-08-19T05:43:42;16.55;;;8.40;;
9176;SDS011;4623;54.310;10.112;2022-08-19T05:46:07;12.98;;;7.35;;
9176;SDS011;4623;54.310;10.112;2022-08-19T05:48:40;16.80;;;7.65;;
9176;SDS011;4623;54.310;10.112;2022-08-19T05:51:06;11.10;;;6.28;;
9176;SDS011;4623;54.310;10.112;2022-08-19T05:53:33;10.68;;;7.47;;
9176;SDS011;4623;54.310;10.112;2022-08-19T05:56:06;15.10;;;8.60;;
9176;SDS011;4623;54.310;10.112;2022-08-19T05:58:33;15.80;;;7.55;;
9176;SDS011;4623;54.310;10.112;2022-08-19T06:01:00;15.88;;;8.20;;
9176;SDS011;4623;54.310;10.112;2022-08-19T06:03:29;11.60;;;7.25;;
9176;SDS011;4623;54.310;10.112;2022-08-19T06:05:56;13.27;;;6.53;;
9176;SDS011;4623;54.310;10.112;2022-08-19T06:08:24;13.90;;;6.32;;
9176;SDS011;4623;54.310;10.112;2022-08-19T06:10:50;8.35;;;5.80;;
9176;SDS011;4623;54.310;10.112;2022-08-19T06:13:15;15.57;;;7.10;;
9176;SDS011;4623;54.310;10.112;2022-08-19T06:15:42;14.00;;;8.60;;
9176;SDS011;4623;54.310;10.112;2022-08-19T06:18:09;17.77;;;9.18;;
9176;SDS011;4623;54.310;10.112;2022-08-19T06:20:34;18.48;;;8.57;;
9176;SDS011;4623;54.310;10.112;2022-08-19T06:23:00;23.05;;;9.32;;
9176;SDS011;4623;54.310;10.112;2022-08-19T06:25:26;12.68;;;7.35;;
9176;SDS011;4623;54.310;10.112;2022-08-19T06:27:51;14.25;;;7.60;;
9176;SDS011;4623;54.310;10.112;2022-08-19T06:30:18;8.73;;;5.90;;
9176;SDS011;4623;54.310;10.112;2022-08-19T06:32:44;18.70;;;7.53;;
9176;SDS011;4623;54.310;10.112;2022-08-19T06:35:09;16.23;;;8.75;;
9176;SDS011;4623;54.310;10.112;2022-08-19T06:37:36;12.50;;;6.68;;
9176;SDS011;4623;54.310;10.112;2022-08-19T06:40:02;18.35;;;8.63;;
9176;SDS011;4623;54.310;10.112;2022-08-19T06:42:28;17.40;;;8.10;;
9176;SDS011;4623;54.310;10.112;2022-08-19T06:44:54;12.80;;;8.00;;
9176;SDS011;4623;54.310;10.112;2022-08-19T06:47:20;12.52;;;8.85;;
9176;SDS011;4623;54.310;10.112;2022-08-19T06:49:46;11.13;;;7.95;;
9176;SDS011;4623;54.310;10.112;2022-08-19T06:52:12;10.25;;;7.68;;
9176;SDS011;4623;54.310;10.112;2022-08-19T06:54:39;12.27;;;7.47;;
9176;SDS011;4623;54.310;10.112;2022-08-19T06:57:07;12.80;;;7.70;;
9176;SDS011;4623;54.310;10.112;2022-08-19T06:59:38;10.13;;;7.90;;
9176;SDS011;4623;54.310;10.112;2022-08-19T07:02:04;16.05;;;8.75;;
9176;SDS011;4623;54.310;10.112;2022-08-19T07:04:31;13.85;;;9.15;;
9176;SDS011;4623;54.310;10.112;2022-08-19T07:09:31;21.90;;;9.88;;
9176;SDS011;4623;54.310;10.112;2022-08-19T07:11:57;12.13;;;8.90;;
9176;SDS011;4623;54.310;10.112;2022-08-19T07:14:24;16.08;;;9.20;;
9176;SDS011;4623;54.310;10.112;2022-08-19T07:16:53;8.60;;;7.55;;
9176;SDS011;4623;54.310;10.112;2022-08-19T07:19:20;11.57;;;7.70;;
9176;SDS011;4623;54.310;10.112;2022-08-19T07:21:48;14.63;;;9.23;;
9176;SDS011;4623;54.310;10.112;2022-08-19T07:24:17;15.27;;;9.57;;
9176;SDS011;4623;54.310;10.112;2022-08-19T07:26:44;12.02;;;9.85;;
9176;SDS011;4623;54.310;10.112;2022-08-19T07:29:10;11.02;;;9.40;;
9176;SDS011;4623;54.310;10.112;2022-08-19T07:31:37;12.15;;;8.43;;
9176;SDS011;4623;54.310;10.112;2022-08-19T07:34:04;15.50;;;9.30;;
9176;SDS011;4623;54.310;10.112;2022-08-19T07:36:31;14.88;;;10.38;;
9176;SDS011;4623;54.310;10.112;2022-08-19T07:38:58;11.45;;;9.27;;
9176;SDS011;4623;54.310;10.112;2022-08-19T07:41:26;11.68;;;8.52;;
9176;SDS011;4623;54.310;10.112;2022-08-19T07:43:57;14.07;;;8.75;;
9176;SDS011;4623;54.310;10.112;2022-08-19T07:46:29;14.50;;;10.20;;
9176;SDS011;4623;54.310;10.112;2022-08-19T07:49:00;17.63;;;10.65;;
9176;SDS011;4623;54.310;10.112;2022-08-19T07:51:27;12.50;;;10.15;;
9176;SDS011;4623;54.310;10.112;2022-08-19T07:53:53;16.38;;;10.02;;
9176;SDS011;4623;54.310;10.112;2022-08-19T07:56:19;20.58;;;10.95;;
9176;SDS011;4623;54.310;10.112;2022-08-19T07:58:46;15.52;;;10.52;;
9176;SDS011;4623;54.310;10.112;2022-08-19T08:01:14;17.45;;;11.13;;
9176;SDS011;4623;54.310;10.112;2022-08-19T08:03:42;15.75;;;9.48;;
9176;SDS011;4623;54.310;10.112;2022-08-19T08:06:27;17.23;;;9.20;;
9176;SDS011;4623;54.310;10.112;2022-08-19T08:09:11;14.35;;;9.65;;
9176;SDS011;4623;54.310;10.112;2022-08-19T08:11:39;16.83;;;10.13;;
9176;SDS011;4623;54.310;10.112;2022-08-19T08:14:07;18.38;;;11.15;;
9176;SDS011;4623;54.310;10.112;2022-08-19T08:16:37;18.15;;;10.93;;
9176;SDS011;4623;54.310;10.112;2022-08-19T08:19:06;9.18;;;8.07;;
9176;SDS011;4623;54.310;10.112;2022-08-19T08:21:33;13.77;;;9.90;;
9176;SDS011;4623;54.310;10.112;2022-08-19T08:23:58;12.30;;;10.23;;
9176;SDS011;4623;54.310;10.112;2022-08-19T08:26:24;13.38;;;9.45;;
9176;SDS011;4623;54.310;10.112;2022-08-19T08:28:50;11.38;;;10.15;;
9176;SDS011;4623;54.310;10.112;2022-08-19T08:31:17;12.98;;;9.38;;
9176;SDS011;4623;54.310;10.112;2022-08-19T08:33:46;9.88;;;8.88;;
9176;SDS011;4623;54.310;10.112;2022-08-19T08:36:12;12.02;;;10.15;;
9176;SDS011;4623;54.310;10.112;2022-08-19T08:38:42;11.18;;;9.85;;
9176;SDS011;4623;54.310;10.112;2022-08-19T08:43:52;12.52;;;10.10;;
9176;SDS011;4623;54.310;10.112;2022-08-19T08:46:30;11.40;;;8.70;;
9176;SDS011;4623;54.310;10.112;2022-08-19T08:51:51;8.70;;;7.80;;
9176;SDS011;4623;54.310;10.112;2022-08-19T08:54:40;10.95;;;8.90;;
9176;SDS011;4623;54.310;10.112;2022-08-19T09:00:10;12.88;;;8.65;;
9176;SDS011;4623;54.310;10.112;2022-08-19T09:02:43;12.65;;;8.80;;
9176;SDS011;4623;54.310;10.112;2022-08-19T09:05:10;8.65;;;7.32;;
9176;SDS011;4623;54.310;10.112;2022-08-19T09:07:43;9.82;;;8.80;;
9176;SDS011;4623;54.310;10.112;2022-08-19T09:10:28;9.65;;;8.65;;
9176;SDS011;4623;54.310;10.112;2022-08-19T09:15:40;11.65;;;9.80;;
9176;SDS011;4623;54.310;10.112;2022-08-19T09:18:09;11.48;;;10.27;;
9176;SDS011;4623;54.310;10.112;2022-08-19T09:20:35;14.73;;;11.13;;
9176;SDS011;4623;54.310;10.112;2022-08-19T09:23:01;13.15;;;11.45;;
9176;SDS011;4623;54.310;10.112;2022-08-19T09:25:27;10.55;;;9.45;;
9176;SDS011;4623;54.310;10.112;2022-08-19T09:27:53;12.85;;;11.48;;
9176;SDS011;4623;54.310;10.112;2022-08-19T09:30:25;11.90;;;10.70;;
9176;SDS011;4623;54.310;10.112;2022-08-19T09:32:53;14.90;;;11.27;;
9176;SDS011;4623;54.310;10.112;2022-08-19T09:35:21;15.77;;;13.57;;
9176;SDS011;4623;54.310;10.112;2022-08-19T09:37:48;14.23;;;11.50;;
9176;SDS011;4623;54.310;10.112;2022-08-19T09:40:15;11.25;;;9.70;;
9176;SDS011;4623;54.310;10.112;2022-08-19T09:42:42;15.13;;;12.30;;
9176;SDS011;4623;54.310;10.112;2022-08-19T09:45:09;19.33;;;12.02;;
9176;SDS011;4623;54.310;10.112;2022-08-19T09:47:36;13.40;;;11.00;;
9176;SDS011;4623;54.310;10.112;2022-08-19T09:50:06;9.90;;;8.82;;
9176;SDS011;4623;54.310;10.112;2022-08-19T09:52:33;13.25;;;10.50;;
9176;SDS011;4623;54.310;10.112;2022-08-19T09:55:01;17.02;;;10.77;;
9176;SDS011;4623;54.310;10.112;2022-08-19T09:57:28;13.00;;;9.80;;
9176;SDS011;4623;54.310;10.112;2022-08-19T09:59:54;14.00;;;10.65;;
9176;SDS011;4623;54.310;10.112;2022-08-19T10:02:19;15.90;;;10.27;;
9176;SDS011;4623;54.310;10.112;2022-08-19T10:04:45;13.80;;;10.73;;
9176;SDS011;4623;54.310;10.112;2022-08-19T10:07:29;13.07;;;10.50;;
9176;SDS011;4623;54.310;10.112;2022-08-19T10:09:55;15.10;;;11.73;;
9176;SDS011;4623;54.310;10.112;2022-08-19T10:12:21;12.23;;;10.77;;
9176;SDS011;4623;54.310;10.112;2022-08-19T10:14:47;13.60;;;11.07;;
9176;SDS011;4623;54.310;10.112;2022-08-19T10:17:13;18.33;;;10.95;;
9176;SDS011;4623;54.310;10.112;2022-08-19T10:19:39;18.25;;;12.13;;
9176;SDS011;4623;54.310;10.112;2022-08-19T10:22:06;13.70;;;11.10;;
9176;SDS011;4623;54.310;10.112;2022-08-19T10:24:32;11.18;;;9.52;;
9176;SDS011;4623;54.310;10.112;2022-08-19T10:26:59;10.55;;;8.85;;
9176;SDS011;4623;54.310;10.112;2022-08-19T10:29:28;12.30;;;9.73;;
9176;SDS011;4623;54.310;10.112;2022-08-19T10:31:55;10.75;;;9.50;;
9176;SDS011;4623;54.310;10.112;2022-08-19T10:34:22;9.50;;;7.90;;
9176;SDS011;4623;54.310;10.112;2022-08-19T10:36:48;8.93;;;7.28;;
9176;SDS011;4623;54.310;10.112;2022-08-19T10:39:14;16.27;;;10.60;;
9176;SDS011;4623;54.310;10.112;2022-08-19T10:41:40;8.80;;;7.75;;
9176;SDS011;4623;54.310;10.112;2022-08-19T10:44:09;8.98;;;7.50;;
9176;SDS011;4623;54.310;10.112;2022-08-19T10:46:42;12.52;;;8.18;;
9176;SDS011;4623;54.310;10.112;2022-08-19T10:49:11;9.23;;;7.68;;
9176;SDS011;4623;54.310;10.112;2022-08-19T10:51:38;10.45;;;7.78;;
9176;SDS011;4623;54.310;10.112;2022-08-19T10:54:23;10.98;;;9.23;;
9176;SDS011;4623;54.310;10.112;2022-08-19T10:57:08;9.65;;;8.48;;
9176;SDS011;4623;54.310;10.112;2022-08-19T10:59:34;12.70;;;10.00;;
9176;SDS011;4623;54.310;10.112;2022-08-19T11:02:01;10.02;;;8.90;;
9176;SDS011;4623;54.310;10.112;2022-08-19T11:04:29;13.52;;;7.78;;
9176;SDS011;4623;54.310;10.112;2022-08-19T11:06:56;11.98;;;9.45;;
9176;SDS011;4623;54.310;10.112;2022-08-19T11:09:23;10.95;;;7.50;;
9176;SDS011;4623;54.310;10.112;2022-08-19T11:11:50;9.25;;;7.03;;
9176;SDS011;4623;54.310;10.112;2022-08-19T11:14:18;11.02;;;8.43;;
9176;SDS011;4623;54.310;10.112;2022-08-19T11:16:45;11.15;;;8.18;;
9176;SDS011;4623;54.310;10.112;2022-08-19T11:19:11;8.65;;;7.47;;
9176;SDS011;4623;54.310;10.112;2022-08-19T11:21:40;12.43;;;9.25;;
9176;SDS011;4623;54.310;10.112;2022-08-19T11:24:11;8.70;;;7.88;;
9176;SDS011;4623;54.310;10.112;2022-08-19T11:26:40;10.23;;;7.63;;
9176;SDS011;4623;54.310;10.112;2022-08-19T11:29:08;14.63;;;10.35;;
9176;SDS011;4623;54.310;10.112;2022-08-19T11:31:39;13.05;;;9.90;;
9176;SDS011;4623;54.310;10.112;2022-08-19T11:34:08;11.15;;;8.85;;
9176;SDS011;4623;54.310;10.112;2022-08-19T11:36:36;11.02;;;8.80;;
9176;SDS011;4623;54.310;10.112;2022-08-19T11:39:07;14.02;;;9.95;;
9176;SDS011;4623;54.310;10.112;2022-08-19T11:41:32;11.20;;;8.85;;
9176;SDS011;4623;54.310;10.112;2022-08-19T11:43:59;14.50;;;9.90;;
9176;SDS011;4623;54.310;10.112;2022-08-19T11:46:25;12.65;;;10.20;;
9176;SDS011;4623;54.310;10.112;2022-08-19T11:48:54;14.68;;;10.13;;
9176;SDS011;4623;54.310;10.112;2022-08-19T11:51:21;10.93;;;9.27;;
9176;SDS011;4623;54.310;10.112;2022-08-19T11:53:49;10.48;;;8.65;;
9176;SDS011;4623;54.310;10.112;2022-08-19T11:56:16;9.85;;;8.38;;
9176;SDS011;4623;54.310;10.112;2022-08-19T11:58:43;12.15;;;10.20;;
9176;SDS011;4623;54.310;10.112;2022-08-19T12:01:10;14.50;;;10.73;;
9176;SDS011;4623;54.310;10.112;2022-08-19T12:03:37;11.80;;;9.82;;
9176;SDS011;4623;54.310;10.112;2022-08-19T12:06:04;10.90;;;8.05;;
9176;SDS011;4623;54.310;10.112;2022-08-19T12:08:31;12.75;;;9.48;;
9176;SDS011;4623;54.310;10.112;2022-08-19T12:10:57;11.65;;;9.93;;
9176;SDS011;4623;54.310;10.112;2022-08-19T12:13:22;8.95;;;7.80;;
9176;SDS011;4623;54.310;10.112;2022-08-19T12:15:49;13.55;;;11.30;;
9176;SDS011;4623;54.310;10.112;2022-08-19T12:18:14;11.68;;;9.88;;
9176;SDS011;4623;54.310;10.112;2022-08-19T12:20:40;12.15;;;10.30;;
9176;SDS011;4623;54.310;10.112;2022-08-19T12:23:08;13.02;;;10.05;;
9176;SDS011;4623;54.310;10.112;2022-08-19T12:25:34;15.07;;;10.48;;
9176;SDS011;4623;54.310;10.112;2022-08-19T12:28:13;13.23;;;10.00;;
9176;SDS011;4623;54.310;10.112;2022-08-19T12:30:38;12.25;;;9.13;;
9176;SDS011;4623;54.310;10.112;2022-08-19T12:33:04;14.13;;;9.65;;
9176;SDS011;4623;54.310;10.112;2022-08-19T12:35:30;16.77;;;11.43;;
9176;SDS011;4623;54.310;10.112;2022-08-19T12:37:55;13.48;;;10.77;;
9176;SDS011;4623;54.310;10.112;2022-08-19T12:40:21;11.15;;;9.77;;
9176;SDS011;4623;54.310;10.112;2022-08-19T12:42:46;11.63;;;9.02;;
9176;SDS011;4623;54.310;10.112;2022-08-19T12:45:15;11.20;;;8.70;;
9176;SDS011;4623;54.310;10.112;2022-08-19T12:47:40;10.68;;;8.68;;
9176;SDS011;4623;54.310;10.112;2022-08-19T12:50:07;10.90;;;9.75;;
9176;SDS011;4623;54.310;10.112;2022-08-19T12:52:34;11.55;;;8.68;;
9176;SDS011;4623;54.310;10.112;2022-08-19T12:55:05;10.40;;;9.18;;
9176;SDS011;4623;54.310;10.112;2022-08-19T12:57:31;11.38;;;9.30;;
9176;SDS011;4623;54.310;10.112;2022-08-19T13:02:37;11.20;;;9.43;;
9176;SDS011;4623;54.310;10.112;2022-08-19T13:05:10;12.55;;;10.25;;
9176;SDS011;4623;54.310;10.112;2022-08-19T13:07:40;11.18;;;9.73;;
9176;SDS011;4623;54.310;10.112;2022-08-19T13:10:09;11.32;;;9.20;;
9176;SDS011;4623;54.310;10.112;2022-08-19T13:12:36;16.05;;;11.43;;
9176;SDS011;4623;54.310;10.112;2022-08-19T13:15:03;12.82;;;10.20;;
9176;SDS011;4623;54.310;10.112;2022-08-19T13:17:29;10.07;;;8.15;;
9176;SDS011;4623;54.310;10.112;2022-08-19T13:19:54;10.52;;;9.25;;
9176;SDS011;4623;54.310;10.112;2022-08-19T13:22:20;13.23;;;10.40;;
9176;SDS011;4623;54.310;10.112;2022-08-19T13:24:45;11.80;;;10.25;;
9176;SDS011;4623;54.310;10.112;2022-08-19T13:27:11;10.32;;;9.25;;
9176;SDS011;4623;54.310;10.112;2022-08-19T13:29:36;14.40;;;11.35;;
9176;SDS011;4623;54.310;10.112;2022-08-19T13:32:22;17.27;;;12.73;;
9176;SDS011;4623;54.310;10.112;2022-08-19T13:35:06;12.43;;;9.90;;
9176;SDS011;4623;54.310;10.112;2022-08-19T13:37:32;13.07;;;10.27;;
9176;SDS011;4623;54.310;10.112;2022-08-19T13:40:08;17.88;;;13.27;;
9176;SDS011;4623;54.310;10.112;2022-08-19T13:42:45;14.27;;;12.25;;
9176;SDS011;4623;54.310;10.112;2022-08-19T13:45:12;20.08;;;14.88;;
9176;SDS011;4623;54.310;10.112;2022-08-19T13:47:40;12.05;;;10.60;;
9176;SDS011;4623;54.310;10.112;2022-08-19T13:50:13;14.07;;;11.50;;
9176;SDS011;4623;54.310;10.112;2022-08-19T13:52:41;13.25;;;10.15;;
9176;SDS011;4623;54.310;10.112;2022-08-19T13:55:08;10.77;;;9.65;;
9176;SDS011;4623;54.310;10.112;2022-08-19T13:57:35;13.73;;;10.73;;
9176;SDS011;4623;54.310;10.112;2022-08-19T14:00:04;12.20;;;10.10;;
9176;SDS011;4623;54.310;10.112;2022-08-19T14:02:35;12.02;;;10.82;;
9176;SDS011;4623;54.310;10.112;2022-08-19T14:05:02;10.95;;;9.07;;
9176;SDS011;4623;54.310;10.112;2022-08-19T14:07:29;13.93;;;10.20;;
9176;SDS011;4623;54.310;10.112;2022-08-19T14:09:54;11.02;;;9.55;;
9176;SDS011;4623;54.310;10.112;2022-08-19T14:12:20;11.15;;;9.02;;
9176;SDS011;4623;54.310;10.112;2022-08-19T14:14:46;9.82;;;8.82;;
9176;SDS011;4623;54.310;10.112;2022-08-19T14:17:12;14.40;;;11.15;;
9176;SDS011;4623;54.310;10.112;2022-08-19T14:19:37;12.07;;;9.52;;
9176;SDS011;4623;54.310;10.112;2022-08-19T14:22:03;9.40;;;8.18;;
9176;SDS011;4623;54.310;10.112;2022-08-19T14:24:30;10.27;;;8.68;;
9176;SDS011;4623;54.310;10.112;2022-08-19T14:26:57;13.10;;;10.15;;
9176;SDS011;4623;54.310;10.112;2022-08-19T14:29:23;11.57;;;9.93;;
9176;SDS011;4623;54.310;10.112;2022-08-19T14:31:49;9.73;;;8.02;;
9176;SDS011;4623;54.310;10.112;2022-08-19T14:34:15;9.25;;;8.30;;
9176;SDS011;4623;54.310;10.112;2022-08-19T14:36:40;9.10;;;8.20;;
9176;SDS011;4623;54.310;10.112;2022-08-19T14:39:06;11.57;;;10.38;;
9176;SDS011;4623;54.310;10.112;2022-08-19T14:41:32;10.40;;;9.27;;
9176;SDS011;4623;54.310;10.112;2022-08-19T14:43:58;10.65;;;9.57;;
9176;SDS011;4623;54.310;10.112;2022-08-19T14:46:25;10.60;;;9.20;;
9176;SDS011;4623;54.310;10.112;2022-08-19T14:48:52;9.85;;;8.70;;
9176;SDS011;4623;54.310;10.112;2022-08-19T14:51:19;10.98;;;8.20;;
9176;SDS011;4623;54.310;10.112;2022-08-19T14:53:45;9.95;;;8.75;;
9176;SDS011;4623;54.310;10.112;2022-08-19T14:56:16;11.27;;;9.20;;
9176;SDS011;4623;54.310;10.112;2022-08-19T14:58:44;11.38;;;9.68;;
9176;SDS011;4623;54.310;10.112;2022-08-19T15:01:10;8.57;;;7.78;;
9176;SDS011;4623;54.310;10.112;2022-08-19T15:03:37;9.25;;;8.35;;
9176;SDS011;4623;54.310;10.112;2022-08-19T15:06:04;9.55;;;8.65;;
9176;SDS011;4623;54.310;10.112;2022-08-19T15:08:31;9.80;;;8.90;;
9176;SDS011;4623;54.310;10.112;2022-08-19T15:11:00;8.68;;;7.88;;